Time;durP1;ratioP1;P1;durP2;ratioP2;P2;SDS_P1;SDS_P2;PMS_P1;PMS_P2;Temp;Humidity;BMP_temperature;BMP_pressure;BME280_temperature;BME280_humidity;BME280_pressure;Samples;Min_cycle;Max_cycle;Signal;HPM_P1;HPM_P2
2022/04/10 00:00:06;;;;;;;3.30;2.20;;;5.30;68.60;;;;;;5003925;28;20088;-65
2022/04/10 00:02:32;;;;;;;4.00;2.08;;;5.30;68.40;;;;;;5003674;28;20065;-63
2022/04/10 00:04:57;;;;;;;5.22;2.17;;;5.30;68.10;;;;;;5007973;28;20038;-64
2022/04/10 00:07:23;;;;;;;5.75;2.20;;;5.40;68.00;;;;;;5002396;28;20041;-64
2022/04/10 00:09:49;;;;;;;3.00;2.08;;;5.30;67.80;;;;;;5004966;28;20092;-64
2022/04/10 00:12:14;;;;;;;3.28;2.13;;;5.40;67.80;;;;;;5003067;28;20038;-65
2022/04/10 00:14:40;;;;;;;2.83;1.75;;;5.40;67.70;;;;;;5000278;28;20048;-63
2022/04/10 00:17:06;;;;;;;2.08;1.88;;;5.40;67.50;;;;;;5004388;28;20064;-64
2022/04/10 00:19:31;;;;;;;5.50;2.00;;;5.40;67.30;;;;;;5003093;28;20049;-62
2022/04/10 00:21:57;;;;;;;4.40;2.17;;;5.40;67.20;;;;;;5001186;28;20064;-64
2022/04/10 00:24:25;;;;;;;2.50;1.92;;;5.40;67.10;;;;;;5004880;28;20037;-64
2022/04/10 00:26:52;;;;;;;4.68;2.05;;;5.30;67.00;;;;;;4995155;28;20034;-64
2022/04/10 00:29:18;;;;;;;2.13;1.92;;;5.30;66.80;;;;;;5002852;28;20038;-64
2022/04/10 00:31:44;;;;;;;4.50;2.30;;;5.30;66.70;;;;;;5001406;28;20050;-64
2022/04/10 00:34:10;;;;;;;3.45;2.03;;;5.20;66.70;;;;;;5002580;28;20533;-65
2022/04/10 00:36:36;;;;;;;4.13;2.13;;;5.10;66.70;;;;;;4999409;28;20108;-64
2022/04/10 00:39:02;;;;;;;5.32;2.30;;;5.10;66.80;;;;;;4999943;28;20125;-64
2022/04/10 00:41:27;;;;;;;3.63;2.67;;;5.10;66.90;;;;;;5003384;28;20038;-65
2022/04/10 00:44:08;;;;;;;5.13;2.78;;;5.00;67.00;;;;;;4999637;28;20076;-65
2022/04/10 00:46:35;;;;;;;5.18;2.55;;;4.90;67.30;;;;;;5002117;28;20034;-64
2022/04/10 00:49:01;;;;;;;4.68;2.63;;;4.90;67.00;;;;;;5003445;28;20026;-64
2022/04/10 00:51:46;;;;;;;3.50;2.40;;;4.80;67.20;;;;;;4999884;28;20570;-62
2022/04/10 00:54:17;;;;;;;2.95;2.35;;;4.80;67.30;;;;;;4999625;28;20038;-64
2022/04/10 00:56:43;;;;;;;3.63;2.45;;;4.70;67.20;;;;;;5002829;28;20033;-64
2022/04/10 00:59:09;;;;;;;4.22;2.38;;;4.60;67.20;;;;;;5000374;28;20413;-64
2022/04/10 01:01:36;;;;;;;4.10;2.35;;;4.60;67.40;;;;;;5002412;28;20475;-64
2022/04/10 01:04:03;;;;;;;2.80;2.42;;;4.60;67.60;;;;;;5001823;28;20034;-65
2022/04/10 01:06:29;;;;;;;3.15;2.30;;;4.50;67.50;;;;;;5003531;28;20045;-62
2022/04/10 01:08:57;;;;;;;4.05;2.05;;;4.40;67.50;;;;;;4998747;28;20076;-64
2022/04/10 01:11:23;;;;;;;2.58;2.30;;;4.40;67.70;;;;;;5001075;28;20026;-64
2022/04/10 01:13:48;;;;;;;3.22;2.15;;;4.40;67.90;;;;;;4998362;28;20056;-64
2022/04/10 01:16:14;;;;;;;2.05;1.88;;;4.30;67.90;;;;;;5001865;28;20034;-64
2022/04/10 01:18:41;;;;;;;4.40;2.10;;;4.30;67.90;;;;;;5001829;28;20108;-64
2022/04/10 01:21:07;;;;;;;3.25;2.15;;;4.20;68.00;;;;;;4999446;28;20034;-65
2022/04/10 01:23:33;;;;;;;4.53;2.03;;;4.20;68.10;;;;;;4999633;28;20217;-65
2022/04/10 01:25:59;;;;;;;3.33;2.30;;;4.10;68.10;;;;;;4998887;28;20037;-65
2022/04/10 01:28:24;;;;;;;3.88;2.05;;;4.10;68.20;;;;;;5000709;28;20052;-63
2022/04/10 01:30:50;;;;;;;5.72;2.22;;;4.10;68.30;;;;;;4999501;28;20599;-64
2022/04/10 01:33:15;;;;;;;3.60;2.28;;;4.00;68.30;;;;;;5000880;28;20105;-64
2022/04/10 01:35:41;;;;;;;4.85;2.55;;;4.00;68.60;;;;;;4999418;28;20453;-63
2022/04/10 01:38:11;;;;;;;4.35;2.15;;;4.00;68.90;;;;;;5001507;28;20042;-64
2022/04/10 01:40:37;;;;;;;3.30;2.20;;;3.90;69.10;;;;;;4996669;28;20045;-64
2022/04/10 01:43:02;;;;;;;4.10;1.90;;;3.90;69.10;;;;;;4997091;28;20029;-64
2022/04/10 01:45:28;;;;;;;4.32;2.13;;;3.90;69.30;;;;;;4998901;28;20038;-65
2022/04/10 01:47:54;;;;;;;4.20;2.33;;;3.90;69.60;;;;;;5000540;28;20037;-64
2022/04/10 01:50:20;;;;;;;2.97;2.30;;;3.80;69.60;;;;;;4998380;28;20436;-65
2022/04/10 01:52:46;;;;;;;3.40;2.30;;;3.90;69.80;;;;;;4999010;28;20335;-64
2022/04/10 01:55:12;;;;;;;4.28;2.30;;;3.80;70.00;;;;;;4998925;28;20416;-64
2022/04/10 01:57:37;;;;;;;3.83;2.72;;;3.80;70.10;;;;;;4998138;28;20408;-65
2022/04/10 02:00:05;;;;;;;4.28;2.40;;;3.90;70.10;;;;;;4998431;28;20589;-64
2022/04/10 02:02:31;;;;;;;4.38;2.50;;;3.90;70.10;;;;;;4997528;28;20259;-64
2022/04/10 02:04:56;;;;;;;3.78;2.67;;;3.90;70.30;;;;;;4994392;28;20034;-64
2022/04/10 02:07:22;;;;;;;4.07;2.20;;;3.90;70.50;;;;;;4999298;28;20041;-61
2022/04/10 02:09:48;;;;;;;3.10;2.03;;;4.00;70.50;;;;;;4997744;28;20042;-64
2022/04/10 02:12:13;;;;;;;4.03;2.50;;;4.00;70.40;;;;;;4998536;28;20161;-64
2022/04/10 02:14:39;;;;;;;2.78;2.15;;;4.00;70.40;;;;;;4998240;28;20034;-64
2022/04/10 02:17:05;;;;;;;5.95;2.72;;;4.00;70.30;;;;;;5000100;28;20566;-64
2022/04/10 02:19:30;;;;;;;2.50;2.20;;;4.00;70.10;;;;;;4998242;28;20076;-64
2022/04/10 02:21:57;;;;;;;3.05;2.15;;;4.00;70.10;;;;;;4998844;28;20053;-65
2022/04/10 02:24:23;;;;;;;2.38;2.15;;;4.10;70.10;;;;;;5010917;28;20516;-65
2022/04/10 02:26:49;;;;;;;3.20;2.38;;;4.00;70.00;;;;;;4996805;28;20053;-65
2022/04/10 02:29:15;;;;;;;3.00;2.13;;;4.00;70.10;;;;;;4999898;28;20038;-64
2022/04/10 02:31:41;;;;;;;3.10;2.25;;;4.00;70.20;;;;;;4998154;28;20041;-65
2022/04/10 02:34:06;;;;;;;5.57;2.92;;;4.10;70.10;;;;;;5009588;28;20141;-65
2022/04/10 02:36:32;;;;;;;2.33;2.13;;;4.10;70.20;;;;;;5003961;28;20080;-64
2022/04/10 02:38:57;;;;;;;5.93;2.33;;;4.10;70.00;;;;;;4997246;28;20073;-65
2022/04/10 02:41:23;;;;;;;3.08;2.40;;;4.10;69.90;;;;;;4998878;28;20041;-65
2022/04/10 02:43:49;;;;;;;4.15;2.28;;;4.00;69.80;;;;;;4999879;28;20038;-65
2022/04/10 02:46:15;;;;;;;2.33;2.13;;;4.10;69.90;;;;;;4997441;28;20061;-64
2022/04/10 02:48:40;;;;;;;3.65;2.30;;;4.10;69.90;;;;;;4998039;28;20026;-64
2022/04/10 02:51:06;;;;;;;2.42;2.10;;;4.10;69.80;;;;;;5000557;28;20033;-63
2022/04/10 02:53:32;;;;;;;2.72;2.20;;;4.10;69.70;;;;;;5000074;28;20040;-64
2022/04/10 02:55:57;;;;;;;4.55;2.60;;;4.10;69.90;;;;;;4996557;28;20037;-64
2022/04/10 02:58:23;;;;;;;2.60;2.17;;;4.00;70.00;;;;;;5000975;28;20038;-64
2022/04/10 03:00:49;;;;;;;2.20;2.00;;;4.00;69.90;;;;;;5000095;28;20527;-64
2022/04/10 03:03:14;;;;;;;3.75;2.60;;;4.00;69.80;;;;;;4998639;28;20038;-65
2022/04/10 03:05:40;;;;;;;2.70;2.38;;;4.00;69.80;;;;;;4998385;28;20038;-64
2022/04/10 03:08:06;;;;;;;3.10;2.17;;;4.00;69.80;;;;;;5000686;28;20429;-64
2022/04/10 03:10:32;;;;;;;5.07;2.15;;;4.00;69.80;;;;;;4996401;28;20464;-65
2022/04/10 03:12:57;;;;;;;2.30;2.10;;;4.00;69.70;;;;;;4999328;28;20456;-64
2022/04/10 03:15:23;;;;;;;3.15;2.13;;;4.00;69.80;;;;;;4998446;28;20267;-64
2022/04/10 03:17:48;;;;;;;2.33;2.13;;;4.00;69.80;;;;;;4995565;28;20460;-66
2022/04/10 03:20:15;;;;;;;3.85;2.33;;;3.90;69.90;;;;;;4997599;28;20599;-64
2022/04/10 03:22:41;;;;;;;3.95;2.75;;;3.90;69.90;;;;;;4996292;28;20505;-63
2022/04/10 03:25:07;;;;;;;5.70;3.00;;;3.90;70.00;;;;;;4999184;28;20088;-64
2022/04/10 03:27:33;;;;;;;9.30;4.22;;;3.80;70.00;;;;;;4999527;28;20535;-64
2022/04/10 03:29:59;;;;;;;11.35;4.63;;;3.80;70.50;;;;;;4998320;28;20034;-64
2022/04/10 03:32:24;;;;;;;13.63;4.95;;;3.80;70.10;;;;;;5001651;28;20048;-63
2022/04/10 03:34:50;;;;;;;16.95;5.82;;;3.80;70.90;;;;;;5002761;28;20030;-64
2022/04/10 03:37:16;;;;;;;6.68;3.47;;;3.80;70.20;;;;;;5001603;28;20034;-64
2022/04/10 03:39:41;;;;;;;7.57;3.50;;;3.80;70.20;;;;;;5002513;28;20081;-64
2022/04/10 03:42:07;;;;;;;7.68;3.00;;;3.80;70.30;;;;;;5000769;28;20034;-64
2022/04/10 03:44:33;;;;;;;5.45;3.00;;;3.80;70.30;;;;;;5002318;28;20062;-63
2022/04/10 03:46:59;;;;;;;5.05;2.85;;;3.70;70.30;;;;;;5002601;28;20057;-63
2022/04/10 03:49:24;;;;;;;3.72;2.47;;;3.80;70.50;;;;;;5004536;28;20045;-65
2022/04/10 03:51:50;;;;;;;3.58;2.70;;;3.70;70.50;;;;;;5003803;28;20038;-64
2022/04/10 03:54:16;;;;;;;6.95;3.00;;;3.70;70.60;;;;;;5004047;28;20408;-64
2022/04/10 03:56:41;;;;;;;3.25;2.78;;;3.70;70.70;;;;;;5000906;28;20631;-64
2022/04/10 03:59:07;;;;;;;8.60;4.57;;;3.70;70.70;;;;;;5003683;28;20404;-65
2022/04/10 04:01:32;;;;;;;9.65;6.75;;;3.70;70.60;;;;;;4999982;28;20057;-62
2022/04/10 04:03:58;;;;;;;5.70;4.72;;;3.70;70.80;;;;;;4997214;28;20042;-64
2022/04/10 04:06:24;;;;;;;4.90;3.85;;;3.70;71.00;;;;;;5000239;28;20034;-65
2022/04/10 04:08:49;;;;;;;7.00;4.40;;;3.70;70.90;;;;;;4994562;28;20245;-64
2022/04/10 04:11:15;;;;;;;6.18;3.83;;;3.60;71.00;;;;;;4998792;28;20060;-64
2022/04/10 04:13:41;;;;;;;5.43;3.65;;;3.70;71.10;;;;;;4999981;28;20397;-64
2022/04/10 04:16:07;;;;;;;4.55;3.38;;;3.70;71.10;;;;;;5001923;28;20038;-64
2022/04/10 04:18:34;;;;;;;29.77;15.57;;;3.60;71.10;;;;;;5000422;28;20096;-64
2022/04/10 04:21:00;;;;;;;11.82;6.88;;;3.70;71.20;;;;;;4998995;28;20034;-64
2022/04/10 04:23:26;;;;;;;8.70;5.40;;;3.60;71.20;;;;;;4999874;28;20042;-64
2022/04/10 04:25:52;;;;;;;8.02;4.30;;;3.60;71.20;;;;;;5000122;28;20525;-64
2022/04/10 04:28:18;;;;;;;6.32;4.50;;;3.60;71.30;;;;;;5002279;28;20034;-63
2022/04/10 04:30:43;;;;;;;7.93;3.85;;;3.60;71.30;;;;;;5001016;28;20569;-62
2022/04/10 04:33:09;;;;;;;4.75;4.15;;;3.70;71.40;;;;;;4999641;28;20440;-64
2022/04/10 04:35:34;;;;;;;8.63;3.70;;;3.70;71.40;;;;;;4995049;28;20187;-64
2022/04/10 04:38:00;;;;;;;4.05;3.47;;;3.60;71.40;;;;;;4997087;28;20022;-62
2022/04/10 04:40:26;;;;;;;5.15;3.35;;;3.60;71.50;;;;;;4998738;28;20042;-64
2022/04/10 04:42:52;;;;;;;8.27;5.60;;;3.60;71.50;;;;;;5000143;28;20044;-64
2022/04/10 04:45:18;;;;;;;9.25;4.80;;;3.60;71.50;;;;;;5002182;28;20034;-65
2022/04/10 04:47:44;;;;;;;4.65;3.58;;;3.70;71.50;;;;;;5000356;28;20037;-64
2022/04/10 04:50:10;;;;;;;6.82;4.45;;;3.60;71.40;;;;;;4999223;28;20037;-64
2022/04/10 04:52:36;;;;;;;6.88;3.55;;;3.70;71.50;;;;;;5001254;28;20056;-64
2022/04/10 04:55:02;;;;;;;5.32;3.42;;;3.70;71.50;;;;;;5000314;28;20038;-65
2022/04/10 04:57:28;;;;;;;11.10;6.25;;;3.70;71.70;;;;;;4997802;28;20030;-65
2022/04/10 04:59:54;;;;;;;15.27;9.75;;;3.70;71.70;;;;;;4998314;28;20089;-64
2022/04/10 05:02:19;;;;;;;9.02;4.10;;;3.70;72.70;;;;;;4996852;28;20058;-64
2022/04/10 05:04:45;;;;;;;4.88;3.50;;;3.70;72.00;;;;;;4997144;28;20041;-63
2022/04/10 05:07:11;;;;;;;5.00;3.13;;;3.70;71.90;;;;;;4998296;28;20107;-64
2022/04/10 05:09:36;;;;;;;4.72;3.47;;;3.70;72.00;;;;;;4999477;28;20046;-64
2022/04/10 05:12:02;;;;;;;4.18;3.60;;;3.70;72.10;;;;;;5000936;28;20121;-65
2022/04/10 05:14:28;;;;;;;6.47;4.07;;;3.70;72.10;;;;;;5007580;28;20034;-64
2022/04/10 05:16:53;;;;;;;5.72;4.10;;;3.70;72.20;;;;;;5007538;28;20065;-64
2022/04/10 05:19:19;;;;;;;5.90;4.70;;;3.70;72.20;;;;;;5004578;28;20044;-64
2022/04/10 05:21:45;;;;;;;5.35;3.15;;;3.70;72.20;;;;;;5001258;28;20052;-64
2022/04/10 05:24:11;;;;;;;4.90;3.63;;;3.80;72.40;;;;;;5004596;28;20045;-64
2022/04/10 05:26:37;;;;;;;4.82;3.85;;;3.80;72.40;;;;;;5008429;28;20092;-64
2022/04/10 05:29:03;;;;;;;5.63;3.47;;;3.80;72.50;;;;;;5004941;28;20030;-62
2022/04/10 05:31:28;;;;;;;5.57;4.45;;;3.80;72.50;;;;;;5003245;28;20411;-64
2022/04/10 05:33:54;;;;;;;9.02;7.18;;;3.90;72.50;;;;;;5006811;28;20041;-64
2022/04/10 05:36:20;;;;;;;6.13;3.80;;;3.90;72.50;;;;;;5006210;28;20030;-64
2022/04/10 05:38:46;;;;;;;6.50;3.58;;;3.90;72.50;;;;;;5000192;28;20049;-64
2022/04/10 05:41:12;;;;;;;7.03;3.72;;;3.90;72.50;;;;;;5003438;28;20073;-64
2022/04/10 05:43:38;;;;;;;6.40;5.00;;;4.00;72.70;;;;;;5004783;28;20459;-64
2022/04/10 05:46:04;;;;;;;6.80;4.40;;;4.00;72.70;;;;;;5012740;28;20046;-65
2022/04/10 05:48:30;;;;;;;6.28;4.75;;;4.00;72.60;;;;;;5000479;28;20033;-64
2022/04/10 05:50:55;;;;;;;11.55;6.70;;;4.00;72.70;;;;;;5002611;28;20120;-64
2022/04/10 05:53:21;;;;;;;7.45;6.47;;;4.10;72.80;;;;;;5003887;28;20041;-64
2022/04/10 05:55:46;;;;;;;5.75;4.68;;;4.10;72.70;;;;;;5001644;28;20034;-64
2022/04/10 05:58:12;;;;;;;7.00;4.65;;;4.20;72.70;;;;;;5006061;28;20121;-64
2022/04/10 06:00:38;;;;;;;4.38;3.55;;;4.20;72.70;;;;;;5006235;28;20034;-64
2022/04/10 06:03:04;;;;;;;6.28;3.53;;;4.20;72.80;;;;;;5006094;28;20568;-64
2022/04/10 06:05:30;;;;;;;4.57;3.03;;;4.30;72.70;;;;;;5006630;28;20129;-64
2022/04/10 06:07:56;;;;;;;7.07;4.30;;;4.40;72.60;;;;;;5005755;28;20117;-64
2022/04/10 06:10:22;;;;;;;7.35;4.18;;;4.40;72.60;;;;;;5004016;28;20121;-62
2022/04/10 06:12:47;;;;;;;6.50;3.50;;;4.40;72.60;;;;;;5000075;28;20092;-63
2022/04/10 06:15:16;;;;;;;6.95;3.70;;;4.50;72.60;;;;;;5004513;28;20053;-64
2022/04/10 06:17:41;;;;;;;5.72;3.67;;;4.50;72.70;;;;;;4998996;28;20042;-64
2022/04/10 06:20:08;;;;;;;7.68;4.22;;;4.60;72.50;;;;;;5002893;28;20037;-65
2022/04/10 06:22:33;;;;;;;4.82;3.75;;;4.60;72.50;;;;;;4998148;28;20037;-63
2022/04/10 06:24:59;;;;;;;5.47;4.00;;;4.70;72.90;;;;;;5001393;28;20387;-62
2022/04/10 06:27:25;;;;;;;5.75;3.92;;;4.70;72.20;;;;;;5011135;28;20532;-64
2022/04/10 06:29:50;;;;;;;6.38;4.00;;;4.80;72.20;;;;;;5001285;28;20152;-64
2022/04/10 06:32:16;;;;;;;5.18;3.63;;;4.80;72.20;;;;;;5002551;28;20512;-65
2022/04/10 06:34:42;;;;;;;10.88;6.85;;;4.90;72.20;;;;;;5001607;28;20045;-63
2022/04/10 06:37:07;;;;;;;6.85;4.30;;;4.90;72.20;;;;;;5002055;28;20137;-64
2022/04/10 06:39:34;;;;;;;5.45;4.00;;;5.00;72.20;;;;;;5001717;28;20080;-65
2022/04/10 06:41:59;;;;;;;6.22;4.00;;;5.00;72.20;;;;;;5004132;28;20025;-63
2022/04/10 06:44:25;;;;;;;7.28;4.55;;;5.00;72.00;;;;;;4994284;28;20042;-63
2022/04/10 06:46:51;;;;;;;7.47;4.60;;;5.10;72.00;;;;;;4994985;28;20041;-64
2022/04/10 06:49:18;;;;;;;6.75;4.18;;;5.20;72.00;;;;;;4993898;28;20195;-64
2022/04/10 06:51:43;;;;;;;8.02;4.40;;;5.20;71.70;;;;;;4998336;28;20034;-64
2022/04/10 06:54:09;;;;;;;5.50;4.55;;;5.20;71.30;;;;;;4996535;28;20034;-64
2022/04/10 06:56:35;;;;;;;6.97;4.75;;;5.20;71.30;;;;;;4997144;28;20805;-63
2022/04/10 06:59:00;;;;;;;9.55;4.95;;;5.30;71.10;;;;;;4992456;28;20046;-63
2022/04/10 07:01:26;;;;;;;5.18;4.40;;;5.30;70.80;;;;;;4993030;28;20042;-63
2022/04/10 07:03:52;;;;;;;7.22;4.57;;;5.30;70.50;;;;;;4999795;28;20034;-64
2022/04/10 07:06:17;;;;;;;6.13;4.50;;;5.40;70.30;;;;;;5005276;28;20080;-64
2022/04/10 07:08:43;;;;;;;7.75;4.88;;;5.50;70.30;;;;;;5006824;28;20049;-64
2022/04/10 07:11:08;;;;;;;6.78;4.63;;;5.50;70.30;;;;;;5001032;28;20128;-64
2022/04/10 07:13:34;;;;;;;7.00;4.80;;;5.50;70.10;;;;;;5005090;28;20653;-64
2022/04/10 07:16:00;;;;;;;7.28;5.43;;;5.60;70.20;;;;;;5000035;28;20606;-63
2022/04/10 07:18:26;;;;;;;6.60;4.28;;;5.60;70.00;;;;;;5002365;28;20049;-63
2022/04/10 07:20:51;;;;;;;7.70;4.68;;;5.70;70.00;;;;;;4996978;28;20501;-62
2022/04/10 07:23:42;;;;;;;6.45;4.80;;;5.70;70.00;;;;;;5004698;28;20033;-64
2022/04/10 07:26:15;;;;;;;6.20;4.40;;;5.70;69.80;;;;;;4997427;28;20038;-64
2022/04/10 07:28:41;;;;;;;6.80;4.90;;;5.80;69.20;;;;;;5002841;28;20053;-64
2022/04/10 07:31:08;;;;;;;6.63;4.97;;;5.80;69.20;;;;;;5000771;28;20033;-64
2022/04/10 07:33:33;;;;;;;7.22;4.38;;;5.80;68.80;;;;;;5001438;28;20030;-63
2022/04/10 07:35:59;;;;;;;7.45;4.63;;;5.90;69.10;;;;;;4999090;28;20065;-63
2022/04/10 07:38:25;;;;;;;5.80;4.50;;;5.90;69.10;;;;;;5000916;28;20046;-63
2022/04/10 07:40:51;;;;;;;5.93;4.15;;;5.90;68.70;;;;;;4999299;28;20433;-62
2022/04/10 07:43:16;;;;;;;7.47;4.60;;;6.00;68.50;;;;;;5001604;28;20030;-64
2022/04/10 07:48:27;;;;;;;4.95;4.40;;;6.10;68.40;;;;;;4999081;28;20053;-64
2022/04/10 07:50:52;;;;;;;7.22;4.25;;;6.20;68.60;;;;;;5001081;28;20493;-63
2022/04/10 07:53:18;;;;;;;5.43;4.03;;;6.20;68.30;;;;;;5002825;28;22163;-61
2022/04/10 07:55:44;;;;;;;7.57;4.00;;;6.30;68.10;;;;;;4999562;28;20041;-63
2022/04/10 07:58:09;;;;;;;4.35;3.95;;;6.30;67.20;;;;;;5003718;28;20120;-64
2022/04/10 08:00:35;;;;;;;5.72;4.20;;;6.40;67.60;;;;;;4999743;28;20038;-63
2022/04/10 08:03:01;;;;;;;6.82;4.05;;;6.40;67.70;;;;;;5000004;28;20030;-60
2022/04/10 08:05:28;;;;;;;5.38;4.07;;;6.50;67.50;;;;;;5000969;28;20163;-63
2022/04/10 08:07:54;;;;;;;6.45;4.65;;;6.60;67.10;;;;;;4998769;28;20109;-63
2022/04/10 08:10:21;;;;;;;5.88;3.90;;;6.60;66.90;;;;;;4999221;28;20155;-64
2022/04/10 08:12:47;;;;;;;7.78;4.47;;;6.70;66.80;;;;;;4996835;28;20034;-63
2022/04/10 08:15:13;;;;;;;5.85;4.20;;;6.80;66.90;;;;;;4999565;28;20410;-63
2022/04/10 08:17:39;;;;;;;6.05;4.43;;;6.80;66.60;;;;;;5002118;28;20037;-64
2022/04/10 08:20:07;;;;;;;6.00;3.83;;;6.90;67.80;;;;;;4997444;28;20473;-64
2022/04/10 08:22:33;;;;;;;5.43;4.15;;;6.90;66.40;;;;;;4995079;28;20116;-63
2022/04/10 08:25:07;;;;;;;6.15;3.92;;;7.00;65.50;;;;;;5000351;28;20042;-63
2022/04/10 08:27:33;;;;;;;5.27;3.70;;;7.10;64.50;;;;;;5001660;28;20038;-64
2022/04/10 08:29:59;;;;;;;4.20;3.60;;;7.20;64.80;;;;;;5001186;28;20081;-63
2022/04/10 08:32:25;;;;;;;5.38;3.45;;;7.20;64.20;;;;;;5000180;28;20517;-63
2022/04/10 08:34:50;;;;;;;4.70;3.20;;;7.20;63.80;;;;;;5002564;28;20037;-63
2022/04/10 08:37:16;;;;;;;4.53;3.55;;;7.30;62.10;;;;;;5002396;28;20033;-63
2022/04/10 08:39:42;;;;;;;5.72;3.67;;;7.30;62.80;;;;;;4996055;28;20037;-62
2022/04/10 08:42:08;;;;;;;8.80;4.63;;;7.40;63.40;;;;;;4999707;28;20088;-64
2022/04/10 08:44:35;;;;;;;7.32;4.80;;;7.40;63.60;;;;;;5003829;28;20042;-64
2022/04/10 08:47:02;;;;;;;6.72;3.95;;;7.50;63.70;;;;;;5003189;28;20591;-63
2022/04/10 08:49:31;;;;;;;4.28;3.28;;;7.60;63.10;;;;;;5000278;28;20057;-63
2022/04/10 08:51:58;;;;;;;5.88;3.53;;;7.60;63.10;;;;;;5003337;28;20045;-63
2022/04/10 08:54:24;;;;;;;6.35;3.55;;;7.70;61.20;;;;;;5005377;28;20568;-61
2022/04/10 08:56:50;;;;;;;7.22;3.60;;;7.70;61.70;;;;;;4997028;28;20038;-63
2022/04/10 08:59:20;;;;;;;5.80;3.88;;;7.80;62.10;;;;;;5012628;28;20034;-64
2022/04/10 09:01:50;;;;;;;3.75;2.97;;;7.80;62.00;;;;;;5018083;28;20030;-64
2022/04/10 09:04:16;;;;;;;7.15;3.30;;;7.90;61.30;;;;;;4998515;28;20116;-64
2022/04/10 09:06:54;;;;;;;4.93;2.90;;;8.00;62.00;;;;;;4995792;28;20044;-64
2022/04/10 09:09:20;;;;;;;3.55;3.17;;;8.10;61.20;;;;;;5004665;28;20034;-64
2022/04/10 09:11:46;;;;;;;5.50;3.47;;;8.10;59.90;;;;;;5002428;28;20448;-64
2022/04/10 09:14:20;;;;;;;3.75;3.03;;;8.10;59.20;;;;;;5005704;28;20068;-64
2022/04/10 09:16:46;;;;;;;;;;;8.20;57.50;;;;;;5016079;28;20057;-64
2022/04/10 09:19:13;;;;;;;4.25;3.17;;;8.20;56.60;;;;;;5006858;28;20399;-64
2022/04/10 09:21:40;;;;;;;7.03;5.22;;;8.20;57.90;;;;;;5015761;28;20058;-65
2022/04/10 09:24:08;;;;;;;5.03;3.20;;;8.20;58.60;;;;;;5004115;28;20112;-64
2022/04/10 09:26:50;;;;;;;5.22;3.38;;;8.20;58.00;;;;;;5004107;28;20033;-64
2022/04/10 09:29:20;;;;;;;5.13;3.33;;;8.20;58.20;;;;;;4994937;28;20057;-64
2022/04/10 09:31:46;;;;;;;6.18;3.28;;;8.30;58.70;;;;;;5004354;28;20113;-65
2022/04/10 09:34:17;;;;;;;5.82;3.20;;;8.40;57.70;;;;;;5004027;28;20034;-64
2022/04/10 09:36:45;;;;;;;5.82;4.30;;;8.40;57.30;;;;;;5003755;28;20036;-63
2022/04/10 09:39:13;;;;;;;4.15;3.10;;;8.50;58.20;;;;;;4997413;28;20121;-63
2022/04/10 09:41:42;;;;;;;3.38;2.80;;;8.60;58.00;;;;;;5006206;28;20034;-64
2022/04/10 09:44:23;;;;;;;5.32;2.90;;;8.60;57.40;;;;;;5002500;28;20038;-64
2022/04/10 09:46:58;;;;;;;3.72;2.85;;;8.70;56.30;;;;;;5004811;28;20041;-65
2022/04/10 09:49:24;;;;;;;3.88;2.70;;;8.70;56.30;;;;;;5004218;28;20033;-65
2022/04/10 09:52:11;;;;;;;4.63;2.90;;;8.80;57.10;;;;;;5003233;28;20030;-64
2022/04/10 09:54:41;;;;;;;4.45;2.97;;;8.80;55.20;;;;;;5001616;28;20034;-64
2022/04/10 09:57:12;;;;;;;3.03;2.72;;;8.80;56.20;;;;;;5002311;28;20789;-64
2022/04/10 09:59:45;;;;;;;2.63;2.40;;;8.80;56.40;;;;;;5001695;28;20046;-65
2022/04/10 10:02:15;;;;;;;2.83;2.55;;;8.80;56.00;;;;;;5001074;28;20113;-64
2022/04/10 10:04:43;;;;;;;4.75;2.40;;;8.80;57.00;;;;;;5002756;28;20034;-64
2022/04/10 10:07:15;;;;;;;6.38;4.07;;;8.90;56.60;;;;;;5005373;28;20130;-64
2022/04/10 10:09:41;;;;;;;4.05;3.00;;;9.00;56.80;;;;;;5002722;28;20273;-65
2022/04/10 10:12:08;;;;;;;4.35;2.63;;;9.10;55.60;;;;;;4998304;28;20508;-64
2022/04/10 10:14:34;;;;;;;3.30;2.50;;;9.10;54.20;;;;;;5002499;28;20041;-64
2022/04/10 10:17:02;;;;;;;4.70;2.45;;;9.10;54.30;;;;;;5002059;28;20509;-63
2022/04/10 10:19:38;;;;;;;3.72;2.35;;;9.20;54.80;;;;;;5002023;28;20044;-64
2022/04/10 10:22:08;;;;;;;4.80;2.20;;;9.20;55.20;;;;;;5001137;28;20370;-65
2022/04/10 10:24:52;;;;;;;4.72;2.20;;;9.20;55.30;;;;;;5003471;28;20030;-64
2022/04/10 10:27:44;;;;;;;4.95;1.98;;;9.30;53.10;;;;;;5015908;28;20026;-64
2022/04/10 10:30:18;;;;;;;2.85;2.15;;;9.40;54.40;;;;;;4981371;28;20480;-64
2022/04/10 10:32:50;;;;;;;4.13;2.80;;;9.40;54.70;;;;;;5001034;28;20038;-65
2022/04/10 10:35:39;;;;;;;3.20;2.15;;;9.60;54.80;;;;;;5001206;28;20131;-65
2022/04/10 10:38:18;;;;;;;2.67;1.83;;;9.70;51.30;;;;;;5010604;28;20037;-64
2022/04/10 10:40:44;;;;;;;3.78;1.77;;;9.80;51.10;;;;;;5009632;28;20437;-64
2022/04/10 10:43:10;;;;;;;4.43;2.00;;;9.80;51.50;;;;;;5008985;28;20030;-64
2022/04/10 10:45:38;;;;;;;3.05;1.77;;;9.80;51.70;;;;;;5009678;28;20042;-65
2022/04/10 10:48:25;;;;;;;2.50;1.83;;;9.80;52.20;;;;;;5007400;28;20112;-64
2022/04/10 10:50:52;;;;;;;2.67;2.00;;;9.80;52.00;;;;;;5007319;28;20034;-64
2022/04/10 10:53:43;;;;;;;2.58;1.65;;;9.80;52.40;;;;;;5011655;28;20042;-62
2022/04/10 10:56:18;;;;;;;4.03;1.90;;;9.80;51.60;;;;;;5012009;28;20042;-64
2022/04/10 10:58:44;;;;;;;4.55;1.75;;;9.80;52.30;;;;;;5011319;28;20113;-65
2022/04/10 11:01:24;;;;;;;3.10;1.65;;;9.80;52.50;;;;;;5012966;28;20030;-64
2022/04/10 11:04:05;;;;;;;5.05;2.25;;;9.90;51.00;;;;;;5011641;28;20034;-64
2022/04/10 11:06:42;;;;;;;3.58;1.77;;;9.80;50.00;;;;;;5011592;28;20034;-64
2022/04/10 11:09:21;;;;;;;1.55;1.42;;;9.90;51.00;;;;;;5012031;28;20436;-64
2022/04/10 11:11:48;;;;;;;2.10;1.50;;;9.80;51.00;;;;;;5006892;28;20112;-64
2022/04/10 11:14:38;;;;;;;1.77;1.55;;;9.90;51.00;;;;;;5006279;28;20252;-64
2022/04/10 11:17:28;;;;;;;2.45;1.80;;;9.80;50.30;;;;;;5004086;28;20049;-65
2022/04/10 11:20:07;;;;;;;2.67;1.77;;;9.90;51.70;;;;;;5007288;28;20030;-65
2022/04/10 11:22:34;;;;;;;3.67;2.10;;;9.90;52.70;;;;;;5022726;28;20138;-64
2022/04/10 11:25:04;;;;;;;2.78;1.85;;;9.90;52.60;;;;;;5003727;28;20412;-64
2022/04/10 11:27:43;;;;;;;3.38;2.10;;;9.90;52.40;;;;;;5006509;28;20026;-64
2022/04/10 11:30:12;;;;;;;2.47;1.55;;;9.90;52.20;;;;;;5003711;28;20074;-65
2022/04/10 11:32:47;;;;;;;3.80;1.65;;;9.90;52.90;;;;;;5003815;28;20038;-64
2022/04/10 11:35:18;;;;;;;3.28;1.38;;;10.00;52.40;;;;;;5004822;28;20033;-65
2022/04/10 11:37:47;;;;;;;2.42;1.75;;;10.10;52.40;;;;;;5003690;28;20037;-65
2022/04/10 11:40:16;;;;;;;3.10;1.85;;;10.10;51.90;;;;;;5010538;28;20049;-64
2022/04/10 11:42:43;;;;;;;2.60;1.60;;;10.20;52.00;;;;;;5006812;28;21609;-64
2022/04/10 11:45:10;;;;;;;2.60;1.58;;;10.20;51.10;;;;;;5009268;28;20400;-65
2022/04/10 11:47:38;;;;;;;2.75;1.50;;;10.20;50.90;;;;;;5005816;28;20026;-64
2022/04/10 11:50:06;;;;;;;2.83;1.70;;;10.20;50.80;;;;;;5006983;28;20413;-65
2022/04/10 11:52:32;;;;;;;5.20;2.35;;;10.20;50.20;;;;;;5004972;28;20469;-64
2022/04/10 11:54:57;;;;;;;3.78;2.53;;;10.20;50.70;;;;;;5006167;28;20030;-65
2022/04/10 11:57:24;;;;;;;3.38;2.40;;;10.20;51.50;;;;;;5005750;28;20038;-64
2022/04/10 11:59:50;;;;;;;4.35;2.17;;;10.10;52.70;;;;;;5005378;28;20049;-64
2022/04/10 12:02:17;;;;;;;4.38;2.92;;;10.10;52.00;;;;;;5008996;28;20054;-63
2022/04/10 12:04:43;;;;;;;3.22;2.25;;;10.10;52.00;;;;;;5005433;28;20041;-65
2022/04/10 12:07:15;;;;;;;3.38;1.90;;;10.00;52.00;;;;;;5006822;28;20072;-64
2022/04/10 12:09:41;;;;;;;2.22;1.98;;;10.00;51.30;;;;;;5007086;28;20041;-65
2022/04/10 12:12:08;;;;;;;3.13;1.90;;;10.00;51.40;;;;;;5002521;28;20038;-65
2022/04/10 12:14:33;;;;;;;2.80;2.17;;;9.90;52.80;;;;;;5005528;28;20042;-65
2022/04/10 12:16:59;;;;;;;2.53;1.75;;;9.90;51.70;;;;;;5005134;28;20579;-64
2022/04/10 12:19:35;;;;;;;2.65;2.22;;;9.80;51.80;;;;;;5001322;28;20046;-65
2022/04/10 12:22:06;;;;;;;3.08;1.92;;;9.80;51.50;;;;;;5004724;28;20133;-65
2022/04/10 12:24:32;;;;;;;5.65;2.05;;;9.80;51.80;;;;;;5005410;28;20476;-65
2022/04/10 12:26:58;;;;;;;5.22;1.83;;;9.70;52.30;;;;;;5003198;28;20052;-65
2022/04/10 12:29:27;;;;;;;2.63;2.30;;;9.60;52.80;;;;;;5004856;28;20651;-64
2022/04/10 12:31:54;;;;;;;3.13;2.00;;;9.50;51.40;;;;;;5005825;28;20038;-66
2022/04/10 12:34:21;;;;;;;1.58;1.45;;;9.40;51.00;;;;;;5004721;28;20405;-64
2022/04/10 12:36:51;;;;;;;1.95;1.73;;;9.30;51.50;;;;;;5004074;28;20067;-65
2022/04/10 12:39:28;;;;;;;2.13;1.70;;;9.30;52.40;;;;;;5004638;28;20071;-64
2022/04/10 12:42:01;;;;;;;2.42;1.80;;;9.20;53.40;;;;;;5001779;28;20023;-64
2022/04/10 12:44:27;;;;;;;4.28;1.80;;;9.10;53.40;;;;;;5004340;28;20109;-65
2022/04/10 12:46:53;;;;;;;4.53;2.60;;;9.00;53.30;;;;;;4996708;28;20096;-65
2022/04/10 12:49:19;;;;;;;1.83;1.60;;;9.00;53.90;;;;;;4998641;28;20069;-65
2022/04/10 12:52:04;;;;;;;2.88;1.70;;;8.90;53.60;;;;;;5000225;28;20041;-64
2022/04/10 12:54:40;;;;;;;2.47;1.85;;;8.90;53.10;;;;;;5001383;28;20149;-64
2022/04/10 12:57:26;;;;;;;2.38;1.50;;;9.00;53.40;;;;;;4994652;28;20041;-65
2022/04/10 12:59:52;;;;;;;2.05;1.48;;;9.00;52.60;;;;;;4996730;28;20058;-63